sensor_id;sensor_type;location;lat;lon;timestamp;temperature;humidity
12720;DHT22;6424;48.520;11.228;2022-08-01T00:01:07;20.90;94.50
12720;DHT22;6424;48.520;11.228;2022-08-01T00:03:48;20.90;94.90
12720;DHT22;6424;48.520;11.228;2022-08-01T00:06:29;20.80;95.50
12720;DHT22;6424;48.520;11.228;2022-08-01T00:09:10;20.80;95.90
12720;DHT22;6424;48.520;11.228;2022-08-01T00:11:51;20.70;96.10
12720;DHT22;6424;48.520;11.228;2022-08-01T00:14:32;20.70;96.70
12720;DHT22;6424;48.520;11.228;2022-08-01T00:17:12;20.60;97.40
12720;DHT22;6424;48.520;11.228;2022-08-01T00:19:53;20.50;97.90
12720;DHT22;6424;48.520;11.228;2022-08-01T00:22:34;20.40;98.50
12720;DHT22;6424;48.520;11.228;2022-08-01T00:25:15;20.30;99.30
12720;DHT22;6424;48.520;11.228;2022-08-01T00:27:56;20.30;99.80
12720;DHT22;6424;48.520;11.228;2022-08-01T00:30:37;20.20;99.90
12720;DHT22;6424;48.520;11.228;2022-08-01T00:33:17;20.20;99.90
12720;DHT22;6424;48.520;11.228;2022-08-01T00:35:43;20.20;99.90
12720;DHT22;6424;48.520;11.228;2022-08-01T00:38:24;20.10;99.90
12720;DHT22;6424;48.520;11.228;2022-08-01T00:40:50;20.10;99.90
12720;DHT22;6424;48.520;11.228;2022-08-01T00:43:31;20.10;99.90
12720;DHT22;6424;48.520;11.228;2022-08-01T00:46:12;20.10;99.90
12720;DHT22;6424;48.520;11.228;2022-08-01T00:48:37;20.00;99.90
12720;DHT22;6424;48.520;11.228;2022-08-01T00:51:04;20.00;99.90
12720;DHT22;6424;48.520;11.228;2022-08-01T00:53:45;19.90;99.90
12720;DHT22;6424;48.520;11.228;2022-08-01T00:56:27;19.90;99.90
12720;DHT22;6424;48.520;11.228;2022-08-01T00:59:09;19.80;99.90
12720;DHT22;6424;48.520;11.228;2022-08-01T01:01:51;19.70;99.90
12720;DHT22;6424;48.520;11.228;2022-08-01T01:04:32;19.70;99.90
12720;DHT22;6424;48.520;11.228;2022-08-01T01:07:29;19.70;99.90
12720;DHT22;6424;48.520;11.228;2022-08-01T01:16:18;19.60;99.90
12720;DHT22;6424;48.520;11.228;2022-08-01T01:19:01;19.60;99.90
12720;DHT22;6424;48.520;11.228;2022-08-01T01:30:52;19.40;99.90
12720;DHT22;6424;48.520;11.228;2022-08-01T01:33:36;19.40;99.90
12720;DHT22;6424;48.520;11.228;2022-08-01T01:36:18;19.30;99.90
12720;DHT22;6424;48.520;11.228;2022-08-01T01:39:00;19.30;99.90
12720;DHT22;6424;48.520;11.228;2022-08-01T01:41:43;19.20;99.90
12720;DHT22;6424;48.520;11.228;2022-08-01T01:44:26;19.20;99.90
12720;DHT22;6424;48.520;11.228;2022-08-01T01:47:07;19.20;99.90
12720;DHT22;6424;48.520;11.228;2022-08-01T01:49:49;19.10;99.90
12720;DHT22;6424;48.520;11.228;2022-08-01T01:52:32;19.10;99.90
12720;DHT22;6424;48.520;11.228;2022-08-01T01:55:13;19.20;99.90
12720;DHT22;6424;48.520;11.228;2022-08-01T01:57:56;19.10;99.90
12720;DHT22;6424;48.520;11.228;2022-08-01T02:00:37;19.10;99.90
12720;DHT22;6424;48.520;11.228;2022-08-01T02:03:20;19.10;99.90
12720;DHT22;6424;48.520;11.228;2022-08-01T02:06:02;19.10;99.90
12720;DHT22;6424;48.520;11.228;2022-08-01T02:08:45;19.00;99.90
12720;DHT22;6424;48.520;11.228;2022-08-01T02:11:11;19.00;99.90
12720;DHT22;6424;48.520;11.228;2022-08-01T02:14:01;19.00;99.90
12720;DHT22;6424;48.520;11.228;2022-08-01T02:16:40;18.90;99.90
12720;DHT22;6424;48.520;11.228;2022-08-01T02:19:21;18.80;99.90
12720;DHT22;6424;48.520;11.228;2022-08-01T02:22:18;18.80;99.90
12720;DHT22;6424;48.520;11.228;2022-08-01T02:25:15;18.80;99.90
12720;DHT22;6424;48.520;11.228;2022-08-01T02:28:03;18.70;99.90
12720;DHT22;6424;48.520;11.228;2022-08-01T02:30:47;18.70;99.90
12720;DHT22;6424;48.520;11.228;2022-08-01T02:33:37;18.70;99.90
12720;DHT22;6424;48.520;11.228;2022-08-01T02:36:19;18.60;99.90
12720;DHT22;6424;48.520;11.228;2022-08-01T02:39:04;18.60;99.90
12720;DHT22;6424;48.520;11.228;2022-08-01T02:41:49;18.60;99.90
12720;DHT22;6424;48.520;11.228;2022-08-01T02:44:34;18.60;99.90
12720;DHT22;6424;48.520;11.228;2022-08-01T02:47:17;18.50;99.90
12720;DHT22;6424;48.520;11.228;2022-08-01T02:50:00;18.60;99.90
12720;DHT22;6424;48.520;11.228;2022-08-01T02:52:45;18.60;99.90
12720;DHT22;6424;48.520;11.228;2022-08-01T02:55:27;18.60;99.90
12720;DHT22;6424;48.520;11.228;2022-08-01T02:58:09;18.70;99.90
12720;DHT22;6424;48.520;11.228;2022-08-01T03:00:52;18.70;99.90
12720;DHT22;6424;48.520;11.228;2022-08-01T03:03:33;18.70;99.90
12720;DHT22;6424;48.520;11.228;2022-08-01T03:06:01;18.60;99.90
12720;DHT22;6424;48.520;11.228;2022-08-01T03:08:43;18.60;99.90
12720;DHT22;6424;48.520;11.228;2022-08-01T03:11:25;18.60;99.90
12720;DHT22;6424;48.520;11.228;2022-08-01T03:14:09;18.50;99.90
12720;DHT22;6424;48.520;11.228;2022-08-01T03:16:51;18.50;99.90
12720;DHT22;6424;48.520;11.228;2022-08-01T03:19:33;18.50;99.90
12720;DHT22;6424;48.520;11.228;2022-08-01T03:22:15;18.40;99.90
12720;DHT22;6424;48.520;11.228;2022-08-01T03:24:57;18.40;99.90
12720;DHT22;6424;48.520;11.228;2022-08-01T03:27:25;18.40;99.90
12720;DHT22;6424;48.520;11.228;2022-08-01T03:30:06;18.40;99.90
12720;DHT22;6424;48.520;11.228;2022-08-01T03:32:48;18.30;99.90
12720;DHT22;6424;48.520;11.228;2022-08-01T03:35:46;18.30;99.90
12720;DHT22;6424;48.520;11.228;2022-08-01T03:38:31;18.30;99.90
12720;DHT22;6424;48.520;11.228;2022-08-01T03:41:27;18.30;99.90
12720;DHT22;6424;48.520;11.228;2022-08-01T03:44:20;18.30;99.90
12720;DHT22;6424;48.520;11.228;2022-08-01T03:46:54;18.20;99.90
12720;DHT22;6424;48.520;11.228;2022-08-01T03:49:48;18.20;99.90
12720;DHT22;6424;48.520;11.228;2022-08-01T03:52:30;18.20;99.90
12720;DHT22;6424;48.520;11.228;2022-08-01T03:55:13;18.20;99.90
12720;DHT22;6424;48.520;11.228;2022-08-01T03:57:57;18.10;99.90
12720;DHT22;6424;48.520;11.228;2022-08-01T04:00:39;18.10;99.90
12720;DHT22;6424;48.520;11.228;2022-08-01T04:03:21;18.10;99.90
12720;DHT22;6424;48.520;11.228;2022-08-01T04:06:07;18.10;99.90
12720;DHT22;6424;48.520;11.228;2022-08-01T04:08:49;18.10;99.90
12720;DHT22;6424;48.520;11.228;2022-08-01T04:11:36;18.10;99.90
12720;DHT22;6424;48.520;11.228;2022-08-01T04:14:17;18.10;99.90
12720;DHT22;6424;48.520;11.228;2022-08-01T04:16:58;18.20;99.90
12720;DHT22;6424;48.520;11.228;2022-08-01T04:19:40;18.20;99.90
12720;DHT22;6424;48.520;11.228;2022-08-01T04:22:21;18.20;99.90
12720;DHT22;6424;48.520;11.228;2022-08-01T04:25:07;18.40;99.90
12720;DHT22;6424;48.520;11.228;2022-08-01T04:27:50;18.90;99.90
12720;DHT22;6424;48.520;11.228;2022-08-01T04:30:34;19.70;99.90
12720;DHT22;6424;48.520;11.228;2022-08-01T04:33:17;20.30;99.90
12720;DHT22;6424;48.520;11.228;2022-08-01T04:36:01;20.30;99.90
12720;DHT22;6424;48.520;11.228;2022-08-01T04:38:45;20.00;99.90
12720;DHT22;6424;48.520;11.228;2022-08-01T04:41:26;19.70;99.90
12720;DHT22;6424;48.520;11.228;2022-08-01T04:44:08;19.50;99.90
12720;DHT22;6424;48.520;11.228;2022-08-01T04:46:50;19.60;99.90
12720;DHT22;6424;48.520;11.228;2022-08-01T04:49:32;19.90;99.90
12720;DHT22;6424;48.520;11.228;2022-08-01T04:52:13;20.20;99.90
12720;DHT22;6424;48.520;11.228;2022-08-01T04:54:54;20.40;99.90
12720;DHT22;6424;48.520;11.228;2022-08-01T04:57:20;20.30;99.90
12720;DHT22;6424;48.520;11.228;2022-08-01T05:00:01;20.00;99.90
12720;DHT22;6424;48.520;11.228;2022-08-01T05:02:43;19.80;99.90
12720;DHT22;6424;48.520;11.228;2022-08-01T05:05:24;19.60;99.90
12720;DHT22;6424;48.520;11.228;2022-08-01T05:08:06;19.50;99.90
12720;DHT22;6424;48.520;11.228;2022-08-01T05:10:47;19.30;99.90
12720;DHT22;6424;48.520;11.228;2022-08-01T05:13:28;19.30;99.90
12720;DHT22;6424;48.520;11.228;2022-08-01T05:16:09;19.30;99.90
12720;DHT22;6424;48.520;11.228;2022-08-01T05:18:49;19.30;99.90
12720;DHT22;6424;48.520;11.228;2022-08-01T05:21:15;19.30;99.90
12720;DHT22;6424;48.520;11.228;2022-08-01T05:23:56;19.30;99.90
12720;DHT22;6424;48.520;11.228;2022-08-01T05:26:38;19.30;99.90
12720;DHT22;6424;48.520;11.228;2022-08-01T05:29:19;19.40;99.90
12720;DHT22;6424;48.520;11.228;2022-08-01T05:32:00;19.50;99.90
12720;DHT22;6424;48.520;11.228;2022-08-01T05:34:41;19.50;99.90
12720;DHT22;6424;48.520;11.228;2022-08-01T05:37:07;19.60;99.90
12720;DHT22;6424;48.520;11.228;2022-08-01T05:39:47;19.80;99.90
12720;DHT22;6424;48.520;11.228;2022-08-01T05:42:28;19.80;99.90
12720;DHT22;6424;48.520;11.228;2022-08-01T05:44:54;19.80;99.90
12720;DHT22;6424;48.520;11.228;2022-08-01T05:47:35;19.90;99.90
12720;DHT22;6424;48.520;11.228;2022-08-01T05:50:16;20.10;99.90
12720;DHT22;6424;48.520;11.228;2022-08-01T05:52:56;20.20;99.90
12720;DHT22;6424;48.520;11.228;2022-08-01T05:55:37;20.40;99.90
12720;DHT22;6424;48.520;11.228;2022-08-01T05:58:18;20.70;99.90
12720;DHT22;6424;48.520;11.228;2022-08-01T06:00:59;21.00;99.90
12720;DHT22;6424;48.520;11.228;2022-08-01T06:03:39;21.60;99.90
12720;DHT22;6424;48.520;11.228;2022-08-01T06:06:21;22.50;99.90
12720;DHT22;6424;48.520;11.228;2022-08-01T06:09:02;23.30;99.70
12720;DHT22;6424;48.520;11.228;2022-08-01T06:11:43;23.90;98.70
12720;DHT22;6424;48.520;11.228;2022-08-01T06:14:24;24.30;95.30
12720;DHT22;6424;48.520;11.228;2022-08-01T06:17:05;24.80;95.60
12720;DHT22;6424;48.520;11.228;2022-08-01T06:19:45;25.20;93.10
12720;DHT22;6424;48.520;11.228;2022-08-01T06:22:26;25.40;91.80
12720;DHT22;6424;48.520;11.228;2022-08-01T06:25:08;25.50;92.10
12720;DHT22;6424;48.520;11.228;2022-08-01T06:27:34;25.60;91.70
12720;DHT22;6424;48.520;11.228;2022-08-01T06:30:00;25.80;92.80
12720;DHT22;6424;48.520;11.228;2022-08-01T06:32:41;26.00;90.20
12720;DHT22;6424;48.520;11.228;2022-08-01T06:35:22;26.00;89.70
12720;DHT22;6424;48.520;11.228;2022-08-01T06:38:03;26.20;87.70
12720;DHT22;6424;48.520;11.228;2022-08-01T06:40:44;26.20;88.80
12720;DHT22;6424;48.520;11.228;2022-08-01T06:43:25;26.30;87.30
12720;DHT22;6424;48.520;11.228;2022-08-01T06:45:51;26.40;86.70
12720;DHT22;6424;48.520;11.228;2022-08-01T06:48:31;26.30;84.20
12720;DHT22;6424;48.520;11.228;2022-08-01T06:51:12;26.10;84.40
12720;DHT22;6424;48.520;11.228;2022-08-01T06:53:57;25.90;87.00
12720;DHT22;6424;48.520;11.228;2022-08-01T06:56:38;26.00;83.00
12720;DHT22;6424;48.520;11.228;2022-08-01T06:59:18;25.90;83.20
12720;DHT22;6424;48.520;11.228;2022-08-01T07:01:59;26.00;87.80
12720;DHT22;6424;48.520;11.228;2022-08-01T07:04:41;26.10;84.10
12720;DHT22;6424;48.520;11.228;2022-08-01T07:07:22;26.00;83.90
12720;DHT22;6424;48.520;11.228;2022-08-01T07:10:03;26.10;84.20
12720;DHT22;6424;48.520;11.228;2022-08-01T07:12:44;26.10;84.60
12720;DHT22;6424;48.520;11.228;2022-08-01T07:15:25;26.30;84.80
12720;DHT22;6424;48.520;11.228;2022-08-01T07:18:07;26.40;85.50
12720;DHT22;6424;48.520;11.228;2022-08-01T07:20:48;26.50;84.30
12720;DHT22;6424;48.520;11.228;2022-08-01T07:23:29;26.60;82.80
12720;DHT22;6424;48.520;11.228;2022-08-01T07:26:10;26.60;82.90
12720;DHT22;6424;48.520;11.228;2022-08-01T07:28:51;26.40;82.40
12720;DHT22;6424;48.520;11.228;2022-08-01T07:31:31;26.50;81.70
12720;DHT22;6424;48.520;11.228;2022-08-01T07:34:12;26.30;79.80
12720;DHT22;6424;48.520;11.228;2022-08-01T07:36:53;26.20;82.60
12720;DHT22;6424;48.520;11.228;2022-08-01T07:39:34;26.30;84.80
12720;DHT22;6424;48.520;11.228;2022-08-01T07:42:15;26.50;82.30
12720;DHT22;6424;48.520;11.228;2022-08-01T07:44:40;26.60;81.60
12720;DHT22;6424;48.520;11.228;2022-08-01T07:47:25;26.60;81.60
12720;DHT22;6424;48.520;11.228;2022-08-01T07:50:07;26.80;82.70
12720;DHT22;6424;48.520;11.228;2022-08-01T07:52:48;26.90;81.00
12720;DHT22;6424;48.520;11.228;2022-08-01T07:55:28;27.00;80.00
12720;DHT22;6424;48.520;11.228;2022-08-01T07:58:09;26.90;78.90
12720;DHT22;6424;48.520;11.228;2022-08-01T08:00:50;26.90;80.00
12720;DHT22;6424;48.520;11.228;2022-08-01T08:03:31;26.90;81.00
12720;DHT22;6424;48.520;11.228;2022-08-01T08:06:11;26.90;79.50
12720;DHT22;6424;48.520;11.228;2022-08-01T08:08:52;27.00;79.60
12720;DHT22;6424;48.520;11.228;2022-08-01T08:11:34;27.20;78.70
12720;DHT22;6424;48.520;11.228;2022-08-01T08:14:15;27.30;77.10
12720;DHT22;6424;48.520;11.228;2022-08-01T08:16:56;27.20;76.70
12720;DHT22;6424;48.520;11.228;2022-08-01T08:19:37;27.10;76.80
12720;DHT22;6424;48.520;11.228;2022-08-01T08:22:19;27.00;77.80
12720;DHT22;6424;48.520;11.228;2022-08-01T08:25:00;27.00;78.10
12720;DHT22;6424;48.520;11.228;2022-08-01T08:27:41;27.10;76.60
12720;DHT22;6424;48.520;11.228;2022-08-01T08:30:22;27.00;77.00
12720;DHT22;6424;48.520;11.228;2022-08-01T08:33:03;27.10;78.70
12720;DHT22;6424;48.520;11.228;2022-08-01T08:35:44;27.30;78.60
12720;DHT22;6424;48.520;11.228;2022-08-01T08:38:24;27.50;77.80
12720;DHT22;6424;48.520;11.228;2022-08-01T08:41:08;27.70;75.30
12720;DHT22;6424;48.520;11.228;2022-08-01T08:43:50;27.80;76.90
12720;DHT22;6424;48.520;11.228;2022-08-01T08:46:32;28.00;75.30
12720;DHT22;6424;48.520;11.228;2022-08-01T08:49:21;28.10;74.00
12720;DHT22;6424;48.520;11.228;2022-08-01T08:52:04;28.20;75.30
12720;DHT22;6424;48.520;11.228;2022-08-01T08:54:45;28.00;73.40
12720;DHT22;6424;48.520;11.228;2022-08-01T08:57:27;27.90;73.00
12720;DHT22;6424;48.520;11.228;2022-08-01T09:00:08;27.80;73.50
12720;DHT22;6424;48.520;11.228;2022-08-01T09:02:50;27.80;73.90
12720;DHT22;6424;48.520;11.228;2022-08-01T09:05:32;27.80;73.00
12720;DHT22;6424;48.520;11.228;2022-08-01T09:08:13;27.90;74.20
12720;DHT22;6424;48.520;11.228;2022-08-01T09:10:55;28.20;74.20
12720;DHT22;6424;48.520;11.228;2022-08-01T09:13:35;28.40;73.30
12720;DHT22;6424;48.520;11.228;2022-08-01T09:16:01;28.70;72.60
12720;DHT22;6424;48.520;11.228;2022-08-01T09:18:42;28.60;71.80
12720;DHT22;6424;48.520;11.228;2022-08-01T09:21:25;28.50;71.50
12720;DHT22;6424;48.520;11.228;2022-08-01T09:24:15;28.70;71.70
12720;DHT22;6424;48.520;11.228;2022-08-01T09:26:56;28.70;70.90
12720;DHT22;6424;48.520;11.228;2022-08-01T09:29:37;28.50;70.90
12720;DHT22;6424;48.520;11.228;2022-08-01T09:32:19;28.30;71.30
12720;DHT22;6424;48.520;11.228;2022-08-01T09:38:14;28.50;72.00
12720;DHT22;6424;48.520;11.228;2022-08-01T09:40:57;28.60;70.80
12720;DHT22;6424;48.520;11.228;2022-08-01T09:43:39;28.70;70.90
12720;DHT22;6424;48.520;11.228;2022-08-01T09:46:20;29.00;69.40
12720;DHT22;6424;48.520;11.228;2022-08-01T09:49:03;29.20;67.20
12720;DHT22;6424;48.520;11.228;2022-08-01T09:51:45;29.30;68.80
12720;DHT22;6424;48.520;11.228;2022-08-01T09:54:33;29.10;66.30
12720;DHT22;6424;48.520;11.228;2022-08-01T09:57:17;29.10;66.00
12720;DHT22;6424;48.520;11.228;2022-08-01T10:00:00;29.30;66.40
12720;DHT22;6424;48.520;11.228;2022-08-01T10:05:10;28.60;67.20
12720;DHT22;6424;48.520;11.228;2022-08-01T10:08:00;28.40;67.40
12720;DHT22;6424;48.520;11.228;2022-08-01T10:10:43;28.40;69.00
12720;DHT22;6424;48.520;11.228;2022-08-01T10:13:43;28.70;67.90
12720;DHT22;6424;48.520;11.228;2022-08-01T10:16:26;28.90;67.80
12720;DHT22;6424;48.520;11.228;2022-08-01T10:19:07;29.00;65.90
12720;DHT22;6424;48.520;11.228;2022-08-01T10:21:50;29.30;67.10
12720;DHT22;6424;48.520;11.228;2022-08-01T10:24:37;29.50;65.80
12720;DHT22;6424;48.520;11.228;2022-08-01T10:27:18;29.60;63.80
12720;DHT22;6424;48.520;11.228;2022-08-01T10:30:00;29.70;63.30
12720;DHT22;6424;48.520;11.228;2022-08-01T10:32:45;29.70;63.60
12720;DHT22;6424;48.520;11.228;2022-08-01T10:35:27;29.80;61.30
12720;DHT22;6424;48.520;11.228;2022-08-01T10:38:08;29.80;62.10
12720;DHT22;6424;48.520;11.228;2022-08-01T10:40:50;29.90;61.90
12720;DHT22;6424;48.520;11.228;2022-08-01T10:43:17;30.00;62.50
12720;DHT22;6424;48.520;11.228;2022-08-01T10:45:58;29.80;61.10
12720;DHT22;6424;48.520;11.228;2022-08-01T10:51:28;29.10;62.90
12720;DHT22;6424;48.520;11.228;2022-08-01T10:54:10;28.80;63.20
12720;DHT22;6424;48.520;11.228;2022-08-01T10:56:51;28.80;63.30
12720;DHT22;6424;48.520;11.228;2022-08-01T10:59:33;28.80;65.10
12720;DHT22;6424;48.520;11.228;2022-08-01T11:02:30;28.90;64.60
12720;DHT22;6424;48.520;11.228;2022-08-01T11:05:19;28.70;64.60
12720;DHT22;6424;48.520;11.228;2022-08-01T11:08:09;28.60;66.80
12720;DHT22;6424;48.520;11.228;2022-08-01T11:11:02;28.90;64.70
12720;DHT22;6424;48.520;11.228;2022-08-01T11:16:42;29.40;62.10
12720;DHT22;6424;48.520;11.228;2022-08-01T11:19:22;29.20;60.90
12720;DHT22;6424;48.520;11.228;2022-08-01T11:22:03;28.80;61.90
12720;DHT22;6424;48.520;11.228;2022-08-01T11:27:32;28.10;64.40
12720;DHT22;6424;48.520;11.228;2022-08-01T11:32:55;27.70;65.40
12720;DHT22;6424;48.520;11.228;2022-08-01T11:35:37;27.80;66.50
12720;DHT22;6424;48.520;11.228;2022-08-01T11:38:25;28.20;64.50
12720;DHT22;6424;48.520;11.228;2022-08-01T11:44:08;28.70;61.90
12720;DHT22;6424;48.520;11.228;2022-08-01T11:47:05;28.50;63.50
12720;DHT22;6424;48.520;11.228;2022-08-01T11:49:50;28.30;64.00
12720;DHT22;6424;48.520;11.228;2022-08-01T11:52:36;28.00;63.40
12720;DHT22;6424;48.520;11.228;2022-08-01T11:55:21;27.90;64.40
12720;DHT22;6424;48.520;11.228;2022-08-01T11:58:06;28.20;63.90
12720;DHT22;6424;48.520;11.228;2022-08-01T12:00:55;28.20;63.90
12720;DHT22;6424;48.520;11.228;2022-08-01T12:03:36;28.30;64.40
12720;DHT22;6424;48.520;11.228;2022-08-01T12:06:29;28.60;63.10
12720;DHT22;6424;48.520;11.228;2022-08-01T12:09:21;29.00;62.70
12720;DHT22;6424;48.520;11.228;2022-08-01T12:12:02;29.10;61.80
12720;DHT22;6424;48.520;11.228;2022-08-01T12:14:44;29.10;62.00
12720;DHT22;6424;48.520;11.228;2022-08-01T12:17:34;29.10;61.50
12720;DHT22;6424;48.520;11.228;2022-08-01T12:20:19;29.20;61.40
12720;DHT22;6424;48.520;11.228;2022-08-01T12:23:11;29.10;60.30
12720;DHT22;6424;48.520;11.228;2022-08-01T12:25:53;28.80;60.10
12720;DHT22;6424;48.520;11.228;2022-08-01T12:28:39;28.40;62.00
12720;DHT22;6424;48.520;11.228;2022-08-01T12:31:31;28.10;63.30
12720;DHT22;6424;48.520;11.228;2022-08-01T12:34:28;27.70;64.70
12720;DHT22;6424;48.520;11.228;2022-08-01T12:37:09;27.40;64.80
12720;DHT22;6424;48.520;11.228;2022-08-01T12:39:50;27.20;66.00
12720;DHT22;6424;48.520;11.228;2022-08-01T12:42:16;27.00;66.00
12720;DHT22;6424;48.520;11.228;2022-08-01T12:44:57;26.60;66.20
12720;DHT22;6424;48.520;11.228;2022-08-01T12:47:38;26.40;67.50
12720;DHT22;6424;48.520;11.228;2022-08-01T12:50:18;26.30;67.70
12720;DHT22;6424;48.520;11.228;2022-08-01T12:53:05;26.30;67.00
12720;DHT22;6424;48.520;11.228;2022-08-01T12:55:53;26.20;67.10
12720;DHT22;6424;48.520;11.228;2022-08-01T12:58:39;26.10;67.90
12720;DHT22;6424;48.520;11.228;2022-08-01T13:01:08;26.10;69.80
12720;DHT22;6424;48.520;11.228;2022-08-01T13:04:05;26.30;68.20
12720;DHT22;6424;48.520;11.228;2022-08-01T13:06:46;26.30;68.00
12720;DHT22;6424;48.520;11.228;2022-08-01T13:09:28;26.40;68.80
12720;DHT22;6424;48.520;11.228;2022-08-01T13:12:10;26.50;68.40
12720;DHT22;6424;48.520;11.228;2022-08-01T13:14:55;26.70;67.60
12720;DHT22;6424;48.520;11.228;2022-08-01T13:17:42;26.80;66.70
12720;DHT22;6424;48.520;11.228;2022-08-01T13:20:27;26.70;69.00
12720;DHT22;6424;48.520;11.228;2022-08-01T13:23:17;26.80;68.60
12720;DHT22;6424;48.520;11.228;2022-08-01T13:25:58;26.80;67.80
12720;DHT22;6424;48.520;11.228;2022-08-01T13:28:45;26.60;68.10
12720;DHT22;6424;48.520;11.228;2022-08-01T13:31:36;26.60;68.20
12720;DHT22;6424;48.520;11.228;2022-08-01T13:34:33;26.70;67.90
12720;DHT22;6424;48.520;11.228;2022-08-01T13:37:23;26.70;67.60
12720;DHT22;6424;48.520;11.228;2022-08-01T13:40:10;26.70;68.50
12720;DHT22;6424;48.520;11.228;2022-08-01T13:42:53;26.70;68.40
12720;DHT22;6424;48.520;11.228;2022-08-01T13:45:37;26.70;68.50
12720;DHT22;6424;48.520;11.228;2022-08-01T13:48:04;26.50;67.30
12720;DHT22;6424;48.520;11.228;2022-08-01T13:50:47;26.50;68.90
12720;DHT22;6424;48.520;11.228;2022-08-01T13:53:31;26.60;69.10
12720;DHT22;6424;48.520;11.228;2022-08-01T13:56:12;26.80;69.80
12720;DHT22;6424;48.520;11.228;2022-08-01T13:58:54;26.90;69.00
12720;DHT22;6424;48.520;11.228;2022-08-01T14:01:38;27.00;68.20
12720;DHT22;6424;48.520;11.228;2022-08-01T14:04:19;26.90;67.90
12720;DHT22;6424;48.520;11.228;2022-08-01T14:07:01;27.00;68.30
12720;DHT22;6424;48.520;11.228;2022-08-01T14:09:42;26.90;67.00
12720;DHT22;6424;48.520;11.228;2022-08-01T14:12:25;26.90;67.80
12720;DHT22;6424;48.520;11.228;2022-08-01T14:15:15;26.70;67.70
12720;DHT22;6424;48.520;11.228;2022-08-01T14:17:57;26.60;69.30
12720;DHT22;6424;48.520;11.228;2022-08-01T14:20:41;26.60;68.70
12720;DHT22;6424;48.520;11.228;2022-08-01T14:23:27;26.60;68.80
12720;DHT22;6424;48.520;11.228;2022-08-01T14:26:09;26.60;68.70
12720;DHT22;6424;48.520;11.228;2022-08-01T14:29:04;26.50;70.10
12720;DHT22;6424;48.520;11.228;2022-08-01T14:31:47;26.50;70.10
12720;DHT22;6424;48.520;11.228;2022-08-01T14:34:28;26.50;70.30
12720;DHT22;6424;48.520;11.228;2022-08-01T14:37:09;26.40;71.20
12720;DHT22;6424;48.520;11.228;2022-08-01T14:39:35;26.30;70.10
12720;DHT22;6424;48.520;11.228;2022-08-01T14:42:16;26.10;70.20
12720;DHT22;6424;48.520;11.228;2022-08-01T14:45:03;25.70;71.60
12720;DHT22;6424;48.520;11.228;2022-08-01T14:47:48;25.40;73.80
12720;DHT22;6424;48.520;11.228;2022-08-01T14:50:29;25.10;83.80
12720;DHT22;6424;48.520;11.228;2022-08-01T14:53:11;24.10;84.70
12720;DHT22;6424;48.520;11.228;2022-08-01T14:55:52;23.30;91.90
12720;DHT22;6424;48.520;11.228;2022-08-01T14:58:32;22.80;93.20
12720;DHT22;6424;48.520;11.228;2022-08-01T15:01:13;22.40;98.40
12720;DHT22;6424;48.520;11.228;2022-08-01T15:03:54;22.10;99.90
12720;DHT22;6424;48.520;11.228;2022-08-01T15:06:36;21.90;99.90
12720;DHT22;6424;48.520;11.228;2022-08-01T15:09:02;21.80;99.90
12720;DHT22;6424;48.520;11.228;2022-08-01T15:11:28;21.70;99.90
12720;DHT22;6424;48.520;11.228;2022-08-01T15:14:09;21.70;99.90
12720;DHT22;6424;48.520;11.228;2022-08-01T15:17:08;21.80;99.90
12720;DHT22;6424;48.520;11.228;2022-08-01T15:19:34;22.00;99.90
12720;DHT22;6424;48.520;11.228;2022-08-01T15:22:16;22.10;99.90
12720;DHT22;6424;48.520;11.228;2022-08-01T15:24:59;22.20;99.90
12720;DHT22;6424;48.520;11.228;2022-08-01T15:27:26;22.30;99.90
12720;DHT22;6424;48.520;11.228;2022-08-01T15:30:07;22.30;99.90
12720;DHT22;6424;48.520;11.228;2022-08-01T15:32:48;22.50;99.90
12720;DHT22;6424;48.520;11.228;2022-08-01T15:35:29;22.70;99.90
12720;DHT22;6424;48.520;11.228;2022-08-01T15:38:10;22.70;99.90
12720;DHT22;6424;48.520;11.228;2022-08-01T15:40:51;22.80;99.90
12720;DHT22;6424;48.520;11.228;2022-08-01T15:43:32;22.90;99.90
12720;DHT22;6424;48.520;11.228;2022-08-01T15:46:12;22.90;99.90
12720;DHT22;6424;48.520;11.228;2022-08-01T15:48:53;22.90;99.90
12720;DHT22;6424;48.520;11.228;2022-08-01T15:51:34;22.70;99.90
12720;DHT22;6424;48.520;11.228;2022-08-01T15:54:15;22.70;99.90
12720;DHT22;6424;48.520;11.228;2022-08-01T15:56:56;22.80;99.90
12720;DHT22;6424;48.520;11.228;2022-08-01T15:59:37;22.90;99.90
12720;DHT22;6424;48.520;11.228;2022-08-01T16:02:18;22.80;99.90
12720;DHT22;6424;48.520;11.228;2022-08-01T16:04:58;22.90;99.90
12720;DHT22;6424;48.520;11.228;2022-08-01T16:07:39;23.00;99.90
12720;DHT22;6424;48.520;11.228;2022-08-01T16:10:20;23.00;99.90
12720;DHT22;6424;48.520;11.228;2022-08-01T16:12:47;23.10;99.90
12720;DHT22;6424;48.520;11.228;2022-08-01T16:15:28;23.10;99.90
12720;DHT22;6424;48.520;11.228;2022-08-01T16:18:10;23.10;99.90
12720;DHT22;6424;48.520;11.228;2022-08-01T16:20:56;23.00;99.90
12720;DHT22;6424;48.520;11.228;2022-08-01T16:23:39;23.00;99.90
12720;DHT22;6424;48.520;11.228;2022-08-01T16:26:20;23.00;99.90
12720;DHT22;6424;48.520;11.228;2022-08-01T16:29:01;23.00;99.90
12720;DHT22;6424;48.520;11.228;2022-08-01T16:31:42;23.00;99.90
12720;DHT22;6424;48.520;11.228;2022-08-01T16:34:23;23.10;99.90
12720;DHT22;6424;48.520;11.228;2022-08-01T16:37:03;23.20;99.90
12720;DHT22;6424;48.520;11.228;2022-08-01T16:39:44;23.40;99.90
12720;DHT22;6424;48.520;11.228;2022-08-01T16:42:25;23.60;99.90
12720;DHT22;6424;48.520;11.228;2022-08-01T16:45:06;23.70;99.90
12720;DHT22;6424;48.520;11.228;2022-08-01T16:47:47;23.70;99.90
12720;DHT22;6424;48.520;11.228;2022-08-01T16:50:28;23.70;99.90
12720;DHT22;6424;48.520;11.228;2022-08-01T16:53:09;23.60;99.90
12720;DHT22;6424;48.520;11.228;2022-08-01T16:55:50;23.50;99.90
12720;DHT22;6424;48.520;11.228;2022-08-01T16:58:31;23.30;99.90
12720;DHT22;6424;48.520;11.228;2022-08-01T17:01:38;23.20;99.90
12720;DHT22;6424;48.520;11.228;2022-08-01T17:04:20;23.10;99.90
12720;DHT22;6424;48.520;11.228;2022-08-01T17:07:01;23.00;99.90
12720;DHT22;6424;48.520;11.228;2022-08-01T17:09:26;22.90;99.90
12720;DHT22;6424;48.520;11.228;2022-08-01T17:12:07;22.80;99.90
12720;DHT22;6424;48.520;11.228;2022-08-01T17:14:49;22.80;99.90
12720;DHT22;6424;48.520;11.228;2022-08-01T17:17:31;22.70;99.90
12720;DHT22;6424;48.520;11.228;2022-08-01T17:20:12;22.70;99.90
12720;DHT22;6424;48.520;11.228;2022-08-01T17:22:53;22.60;99.90
12720;DHT22;6424;48.520;11.228;2022-08-01T17:25:34;22.60;99.90
12720;DHT22;6424;48.520;11.228;2022-08-01T17:28:14;22.50;99.90
12720;DHT22;6424;48.520;11.228;2022-08-01T17:30:40;22.40;99.90
12720;DHT22;6424;48.520;11.228;2022-08-01T17:33:21;22.40;99.90
12720;DHT22;6424;48.520;11.228;2022-08-01T17:35:48;22.40;99.90